Time;durP1;ratioP1;P1;durP2;ratioP2;P2;SDS_P1;SDS_P2;PMS_P1;PMS_P2;Temp;Humidity;BMP_temperature;BMP_pressure;BME280_temperature;BME280_humidity;BME280_pressure;Samples;Min_cycle;Max_cycle;Signal;HPM_P1;HPM_P2
2022/02/03 00:01:14;;;;;;;8.13;2.40;;;;;;;8.20;72.79;100380.72;5006494;28;20045;-61
2022/02/03 00:03:55;;;;;;;8.98;3.33;;;;;;;8.22;71.86;100378.19;5003748;28;21765;-59
2022/02/03 00:06:32;;;;;;;9.13;2.83;;;;;;;8.21;72.78;100379.88;5008059;28;20070;-61
2022/02/03 00:09:24;;;;;;;9.93;2.85;;;;;;;8.22;72.23;100373.91;5006131;28;20041;-61
2022/02/03 00:22:02;;;;;;;6.78;2.67;;;;;;;8.19;71.89;100367.81;5018976;28;20053;-60
2022/02/03 00:23:30;;;;;;;7.85;2.42;;;;;;;8.17;71.98;100347.16;5013666;28;20100;-61
2022/02/03 00:25:45;;;;;;;7.55;2.85;;;;;;;8.17;72.12;100348.88;5013768;28;20107;-60
2022/02/03 00:28:24;;;;;;;7.03;2.67;;;;;;;8.16;72.74;100352.28;5004064;28;20138;-62
2022/02/03 00:31:04;;;;;;;11.43;3.03;;;;;;;8.17;72.82;100354.03;4998086;28;20054;-59
2022/02/03 00:33:38;;;;;;;8.45;2.72;;;;;;;8.17;71.90;100352.31;4997189;28;20042;-60
2022/02/03 00:36:16;;;;;;;12.57;2.60;;;;;;;8.18;72.51;100355.75;4996910;28;21188;-60
2022/02/03 00:48:17;;;;;;;13.10;3.10;;;;;;;8.17;72.21;100349.72;4996178;28;20592;-61
2022/02/03 00:50:07;;;;;;;11.55;2.83;;;;;;;8.13;72.37;100335.06;4997743;28;20046;-61
2022/02/03 00:52:36;;;;;;;8.95;2.88;;;;;;;8.15;72.45;100330.81;4996038;28;20104;-63
2022/02/03 00:55:05;;;;;;;9.82;3.03;;;;;;;8.13;72.92;100322.16;4997345;28;20069;-59
2022/02/03 00:57:39;;;;;;;9.75;3.08;;;;;;;8.09;71.70;100320.41;4999710;28;20093;-61
2022/02/03 01:00:10;;;;;;;11.00;2.53;;;;;;;8.12;72.87;100304.97;5004889;28;20045;-59
2022/02/03 01:02:42;;;;;;;9.25;3.00;;;;;;;8.11;72.20;100308.41;5003299;28;20108;-61
2022/02/03 01:05:10;;;;;;;12.57;3.08;;;;;;;8.09;72.24;100300.63;5008884;28;20057;-58
2022/02/03 01:07:38;;;;;;;7.72;2.33;;;;;;;8.09;71.90;100299.75;5001461;28;20077;-60
2022/02/03 01:10:13;;;;;;;9.02;2.47;;;;;;;8.09;72.24;100292.00;5002046;28;20046;-60
2022/02/03 01:13:08;;;;;;;9.90;2.92;;;;;;;8.09;72.46;100289.44;4998131;28;20050;-60
2022/02/03 01:15:46;;;;;;;8.85;2.88;;;;;;;8.09;72.46;100292.88;5006910;28;20056;-61
2022/02/03 01:21:33;;;;;;;10.50;2.95;;;;;;;8.07;72.56;100283.41;5006928;28;20081;-59
2022/02/03 01:35:11;;;;;;;9.60;2.65;;;;;;;8.02;73.08;100257.56;5013973;28;20100;-61
2022/02/03 01:46:12;;;;;;;9.20;2.50;;;;;;;7.95;72.60;100251.47;5016755;28;20057;-61
2022/02/03 01:49:04;;;;;;;14.50;2.78;;;;;;;7.97;72.58;100239.44;5008187;28;20058;-61
2022/02/03 01:51:49;;;;;;;8.52;2.25;;;;;;;7.95;72.99;100228.25;5013294;28;20073;-61
2022/02/03 01:54:14;;;;;;;13.35;2.42;;;;;;;7.96;72.60;100227.41;5006484;28;20100;-61
2022/02/03 01:56:50;;;;;;;10.50;2.50;;;;;;;7.93;72.28;100229.94;5007600;28;20112;-62
2022/02/03 01:59:23;;;;;;;7.25;2.03;;;;;;;7.92;73.13;100228.22;5008165;28;20057;-62
2022/02/03 02:01:59;;;;;;;11.82;3.10;;;;;;;7.91;73.67;100223.88;5006910;28;20497;-60
2022/02/03 02:04:47;;;;;;;10.60;2.40;;;;;;;7.88;73.25;100230.72;5003066;28;20062;-61
2022/02/03 02:07:27;;;;;;;14.23;2.75;;;;;;;7.90;72.58;100232.47;5004177;28;20062;-61
2022/02/03 02:13:54;;;;;;;12.07;2.60;;;;;;;7.87;72.31;100227.28;5007613;28;20058;-60
2022/02/03 02:16:48;;;;;;;7.25;2.85;;;;;;;7.88;73.20;100223.00;5009130;28;20066;-58
2022/02/03 02:39:52;;;;;;;13.13;2.40;;;;;;;7.78;73.00;100176.50;5013506;28;20136;-61
2022/02/03 02:42:32;;;;;;;6.78;2.33;;;;;;;7.78;72.46;100167.88;5003694;28;20054;-61
2022/02/03 02:45:05;;;;;;;12.75;3.22;;;;;;;7.76;73.55;100166.97;5008610;28;21202;-61
2022/02/03 02:47:58;;;;;;;10.45;3.30;;;;;;;7.71;74.13;100161.78;4999552;28;20065;-61
2022/02/03 02:50:36;;;;;;;9.55;2.40;;;;;;;7.75;73.96;100160.09;5004325;28;20064;-61
2022/02/03 02:53:30;;;;;;;6.10;2.17;;;;;;;7.77;73.11;100163.56;5001393;28;20050;-61
2022/02/03 02:56:15;;;;;;;9.10;2.92;;;;;;;7.75;72.97;100165.25;5018659;28;20498;-61
2022/02/03 02:59:18;;;;;;;7.78;2.05;;;;;;;7.74;73.98;100167.00;5005689;28;20054;-62
2022/02/03 03:02:07;;;;;;;6.45;1.92;;;;;;;7.72;73.79;100169.56;5018435;28;20050;-60
2022/02/03 03:29:59;;;;;;;8.75;2.80;;;;;;;7.62;74.08;100117.84;5012911;28;20046;-59
2022/02/03 03:32:48;;;;;;;10.07;1.92;;;;;;;7.60;74.00;100120.41;5001642;28;20116;-61
2022/02/03 03:38:05;;;;;;;10.30;2.50;;;;;;;7.53;74.77;100092.88;5001159;28;20100;-60
2022/02/03 03:40:34;;;;;;;7.97;2.15;;;;;;;7.54;73.83;100084.28;5002627;28;20065;-61
2022/02/03 03:43:05;;;;;;;8.10;2.17;;;;;;;7.52;74.18;100070.50;5002231;28;20465;-60
2022/02/03 03:45:33;;;;;;;6.85;2.20;;;;;;;7.50;73.81;100064.47;4999612;28;20077;-61
2022/02/03 03:48:06;;;;;;;11.88;2.95;;;;;;;7.50;73.58;100067.06;5002701;28;20213;-58
2022/02/03 03:50:36;;;;;;;12.02;2.45;;;;;;;7.47;74.55;100062.75;5005028;28;20077;-60
2022/02/03 03:53:19;;;;;;;10.60;2.22;;;;;;;7.46;74.11;100064.44;5004587;28;20049;-60
2022/02/03 03:55:58;;;;;;;10.85;3.00;;;;;;;7.50;74.91;100062.75;5001841;28;20100;-59
2022/02/03 03:58:59;;;;;;;10.52;2.75;;;;;;;7.54;74.17;100063.66;5005831;28;20065;-60
2022/02/03 04:32:31;;;;;;;5.90;2.35;;;;;;;7.57;74.94;100059.38;5013903;28;20159;-60
2022/02/03 04:34:10;;;;;;;7.25;1.85;;;;;;;7.57;75.43;100053.38;5000478;28;20046;-61
2022/02/03 04:43:20;;;;;;;4.43;2.25;;;;;;;7.52;75.12;100019.81;5015367;28;20431;-60
2022/02/03 04:56:17;;;;;;;4.85;1.05;;;;;;;7.48;75.41;99997.44;4984676;28;20054;-61
2022/02/03 04:59:29;;;;;;;5.15;1.33;;;;;;;7.51;74.65;99991.47;5000598;28;20513;-60
2022/02/03 05:02:27;;;;;;;3.55;1.23;;;;;;;7.48;75.45;100001.72;4998201;28;20054;-61
2022/02/03 05:05:40;;;;;;;2.60;1.05;;;;;;;7.46;74.37;100001.72;5006908;28;20494;-57
2022/02/03 05:08:57;;;;;;;2.88;1.23;;;;;;;7.46;74.40;100000.00;5011548;28;20045;-60
2022/02/03 05:15:52;;;;;;;3.58;1.25;;;;;;;7.42;74.41;99993.09;4972486;28;20050;-61
2022/02/03 05:18:56;;;;;;;2.40;1.40;;;;;;;7.39;74.98;99993.06;4980443;28;20049;-60
2022/02/03 05:22:16;;;;;;;3.55;2.63;;;;;;;7.36;75.35;99977.56;5013374;28;20618;-61
2022/02/03 05:32:08;;;;;;;3.13;1.65;;;;;;;7.35;75.33;99965.53;5016858;28;20069;-60
2022/02/03 05:44:13;;;;;;;5.80;1.33;;;;;;;7.36;74.88;99945.81;5018406;28;20112;-61
2022/02/03 05:46:57;;;;;;;4.68;1.65;;;;;;;7.38;74.34;99941.50;5003199;28;20530;-60
2022/02/03 05:55:24;;;;;;;5.38;1.60;;;;;;;7.31;75.05;99922.56;5008955;28;20096;-61
2022/02/03 06:01:07;;;;;;;2.78;1.40;;;;;;;7.25;76.03;99927.66;5015502;28;20066;-59
2022/02/03 06:03:54;;;;;;;6.10;1.30;;;;;;;7.26;75.58;99924.25;5021689;28;20056;-61
2022/02/03 06:06:49;;;;;;;5.65;1.88;;;;;;;7.26;75.55;99925.09;5017877;28;20054;-61
2022/02/03 06:14:43;;;;;;;8.80;1.70;;;;;;;7.22;76.10;99907.88;5019989;28;20081;-61
2022/02/03 06:17:31;;;;;;;5.47;1.45;;;;;;;7.22;75.25;99901.91;5001215;28;20478;-61
2022/02/03 06:22:49;;;;;;;7.25;2.03;;;;;;;7.18;75.49;99896.72;5018344;28;20081;-61
2022/02/03 06:28:02;;;;;;;6.93;1.83;;;;;;;7.17;76.22;99905.25;5003814;28;20142;-61
2022/02/03 06:30:29;;;;;;;4.63;1.55;;;;;;;7.15;75.86;99901.81;5003048;28;20057;-59
2022/02/03 06:32:56;;;;;;;3.53;1.75;;;;;;;7.15;76.56;99900.94;5004846;28;20092;-61
2022/02/03 06:35:22;;;;;;;6.43;2.00;;;;;;;7.16;76.07;99905.28;5003372;28;20046;-61
2022/02/03 06:37:49;;;;;;;5.28;1.73;;;;;;;7.16;76.51;99900.97;5005422;28;20108;-60
2022/02/03 06:40:17;;;;;;;5.10;1.70;;;;;;;7.16;75.52;99902.69;5003026;28;20104;-61
2022/02/03 06:42:45;;;;;;;2.83;1.45;;;;;;;7.13;75.12;99908.66;5004755;28;20050;-61
2022/02/03 06:45:18;;;;;;;4.00;1.30;;;;;;;7.14;76.04;99905.25;5001701;28;20096;-60
2022/02/03 06:47:51;;;;;;;4.93;1.63;;;;;;;7.13;76.74;99908.66;5004982;28;20053;-61
2022/02/03 06:50:23;;;;;;;4.97;1.92;;;;;;;7.14;75.45;99910.41;5007536;28;20042;-60
2022/02/03 06:52:59;;;;;;;6.03;1.58;;;;;;;7.13;75.43;99908.66;5001573;28;20049;-60
2022/02/03 06:55:57;;;;;;;4.68;1.80;;;;;;;7.12;75.00;99906.94;5002222;28;20042;-60
2022/02/03 06:58:20;;;;;;;4.85;2.72;;;;;;;7.11;76.58;99910.38;5013505;28;20738;-60
2022/02/03 07:01:45;;;;;;;5.18;2.05;;;;;;;7.12;75.22;99913.81;4997467;28;20503;-61
2022/02/03 07:03:38;;;;;;;3.83;1.45;;;;;;;7.08;76.74;99912.91;5017917;28;20478;-61
2022/02/03 07:06:05;;;;;;;4.55;2.25;;;;;;;7.10;75.86;99918.09;5001085;28;20127;-61
2022/02/03 07:08:33;;;;;;;6.40;2.70;;;;;;;7.10;76.55;99926.69;5005416;28;20054;-61
2022/02/03 07:11:01;;;;;;;14.00;6.35;;;;;;;7.08;75.80;99910.34;5000257;28;20049;-61
2022/02/03 07:13:28;;;;;;;18.00;9.10;;;;;;;7.05;76.84;99916.34;5001671;28;20422;-61
2022/02/03 07:15:57;;;;;;;9.05;3.67;;;;;;;7.05;75.41;99925.75;5001683;28;20046;-60
2022/02/03 07:18:24;;;;;;;48.97;21.95;;;;;;;7.05;75.97;99921.47;4999695;28;20054;-61
2022/02/03 07:20:51;;;;;;;10.35;6.30;;;;;;;7.07;76.19;99918.94;5004705;28;20042;-60
2022/02/03 07:23:17;;;;;;;4.90;2.60;;;;;;;7.07;76.78;99916.34;5002262;28;20049;-61
2022/02/03 07:25:44;;;;;;;22.00;7.65;;;;;;;7.07;75.81;99914.63;5002509;28;20096;-61
2022/02/03 07:28:12;;;;;;;6.07;3.53;;;;;;;7.05;75.11;99911.19;5001387;28;20084;-60
2022/02/03 07:30:39;;;;;;;7.30;3.10;;;;;;;7.05;75.95;99921.47;4997514;28;21197;-60
2022/02/03 07:33:07;;;;;;;7.57;2.03;;;;;;;7.02;75.57;99920.56;4998599;28;20054;-58
2022/02/03 07:35:35;;;;;;;4.65;2.60;;;;;;;7.00;75.77;99922.28;4998483;28;20106;-60
2022/02/03 07:38:05;;;;;;;6.47;2.53;;;;;;;7.01;76.71;99924.00;5001369;28;20145;-60
2022/02/03 07:40:33;;;;;;;7.07;2.30;;;;;;;7.01;75.65;99919.72;5002649;28;20513;-61
2022/02/03 07:43:03;;;;;;;7.90;3.20;;;;;;;7.02;75.57;99920.56;4997925;28;20065;-60
2022/02/03 07:45:31;;;;;;;7.22;2.60;;;;;;;7.01;74.92;99919.72;5004604;28;20081;-60
2022/02/03 07:47:57;;;;;;;5.82;2.17;;;;;;;7.01;75.37;99913.69;4998065;28;20046;-60
2022/02/03 07:50:24;;;;;;;9.85;3.30;;;;;;;6.99;74.71;99920.56;4995947;28;20705;-59
2022/02/03 07:52:51;;;;;;;7.55;2.85;;;;;;;6.99;75.74;99920.56;5004063;28;20052;-60
2022/02/03 07:55:18;;;;;;;8.10;3.95;;;;;;;6.99;75.78;99918.84;5002200;28;20403;-60
2022/02/03 07:57:47;;;;;;;17.13;5.93;;;;;;;6.98;76.32;99918.81;5001720;28;20544;-59
2022/02/03 08:00:16;;;;;;;18.50;5.75;;;;;;;6.96;75.64;99915.38;4999689;28;20058;-61
2022/02/03 08:03:06;;;;;;;14.32;4.72;;;;;;;6.94;75.29;99917.94;4999570;28;20075;-60
2022/02/03 08:05:34;;;;;;;12.25;4.88;;;;;;;6.93;74.99;99911.91;5006469;28;20054;-60
2022/02/03 08:08:12;;;;;;;16.48;5.22;;;;;;;6.91;74.93;99915.31;5003434;28;20065;-61
2022/02/03 08:10:44;;;;;;;7.93;3.17;;;;;;;6.89;76.18;99910.16;5006367;28;20054;-61
2022/02/03 08:13:16;;;;;;;12.15;5.07;;;;;;;6.91;75.40;99907.59;4995911;28;20581;-59
2022/02/03 08:15:43;;;;;;;5.72;2.35;;;;;;;6.91;76.50;99913.63;5002073;28;20136;-61
2022/02/03 08:18:16;;;;;;;9.73;2.92;;;;;;;6.88;76.29;99903.28;5000879;28;20065;-60
2022/02/03 08:20:50;;;;;;;9.40;3.78;;;;;;;6.91;76.27;99903.31;5007665;28;20053;-61
2022/02/03 08:23:52;;;;;;;11.77;3.72;;;;;;;6.92;76.20;99899.91;5002001;28;20069;-61
2022/02/03 08:26:26;;;;;;;6.70;2.67;;;;;;;6.91;75.40;99908.47;5001269;28;20132;-61
2022/02/03 08:29:09;;;;;;;9.77;3.15;;;;;;;6.91;75.31;99902.44;5006627;28;20101;-60
2022/02/03 08:31:41;;;;;;;13.02;4.10;;;;;;;6.92;75.59;99910.19;5006970;28;20046;-60
2022/02/03 08:34:14;;;;;;;10.27;3.45;;;;;;;6.93;75.47;99899.03;5006348;28;20042;-61
2022/02/03 08:36:41;;;;;;;15.02;3.83;;;;;;;6.96;74.85;99900.81;5006060;28;20104;-60
2022/02/03 08:39:10;;;;;;;11.40;4.30;;;;;;;6.98;74.92;99899.09;5001100;28;20057;-61
2022/02/03 08:41:37;;;;;;;10.65;3.95;;;;;;;7.01;75.62;99900.81;5007193;28;20133;-62
2022/02/03 08:44:05;;;;;;;12.52;4.10;;;;;;;7.05;75.03;99905.16;5005813;28;20046;-60
2022/02/03 08:46:34;;;;;;;7.90;2.67;;;;;;;7.08;75.12;99905.19;5002753;28;20100;-61
2022/02/03 08:49:03;;;;;;;8.35;3.00;;;;;;;7.06;75.65;99901.75;5001303;28;20131;-58
2022/02/03 08:51:31;;;;;;;10.13;3.38;;;;;;;7.07;76.07;99888.03;5003375;28;20053;-61
2022/02/03 08:54:05;;;;;;;8.32;2.53;;;;;;;7.06;76.33;99882.00;5003538;28;20050;-61
2022/02/03 08:56:43;;;;;;;8.65;3.92;;;;;;;7.07;75.98;99882.88;5007065;28;21053;-60
2022/02/03 09:35:52;;;;;;;8.48;2.40;;;;;;;7.53;74.22;99866.06;4982743;28;20112;-59
2022/02/03 09:52:26;;;;;;;6.07;2.55;;;;;;;7.72;73.93;99874.75;5018256;28;20058;-61
2022/02/03 09:54:57;;;;;;;7.35;1.95;;;;;;;7.73;73.93;99873.91;5008092;28;20049;-61
2022/02/03 09:57:37;;;;;;;8.93;2.83;;;;;;;7.77;74.58;99874.78;5004722;28;20054;-60
2022/02/03 10:00:26;;;;;;;7.45;2.92;;;;;;;7.78;74.25;99868.78;5005578;28;20046;-59
2022/02/03 10:02:58;;;;;;;9.85;2.97;;;;;;;7.86;74.47;99856.78;5015845;28;20046;-61
2022/02/03 10:05:38;;;;;;;7.22;2.85;;;;;;;7.91;74.47;99860.25;5002482;28;20061;-59
2022/02/03 10:08:12;;;;;;;5.85;2.10;;;;;;;7.98;73.81;99864.56;5004887;28;20069;-59
2022/02/03 10:10:47;;;;;;;8.88;2.80;;;;;;;8.06;74.73;99861.19;5007514;28;20049;-60
2022/02/03 10:13:18;;;;;;;8.82;3.20;;;;;;;8.11;74.46;99864.66;5008088;28;20057;-60
2022/02/03 10:15:47;;;;;;;5.35;2.83;;;;;;;8.16;74.14;99857.78;5003822;28;20042;-60
2022/02/03 10:18:30;;;;;;;6.47;2.70;;;;;;;8.17;73.96;99856.09;5005412;28;21281;-60
2022/02/03 10:21:00;;;;;;;5.22;2.83;;;;;;;8.23;74.04;99856.09;5004781;28;20045;-60
2022/02/03 10:23:28;;;;;;;5.47;1.90;;;;;;;8.26;72.96;99852.66;5007459;28;20144;-58
2022/02/03 10:26:11;;;;;;;6.38;2.30;;;;;;;8.27;74.02;99863.00;5010580;28;20054;-60
2022/02/03 10:28:49;;;;;;;6.38;2.78;;;;;;;8.35;72.95;99869.03;5004235;28;20104;-60
2022/02/03 10:31:16;;;;;;;3.83;1.65;;;;;;;8.35;73.89;99863.03;5006293;28;20046;-60
2022/02/03 10:33:43;;;;;;;3.90;1.52;;;;;;;8.36;73.19;99869.91;5008978;28;20054;-61
2022/02/03 10:36:20;;;;;;;7.55;2.53;;;;;;;8.38;72.92;99862.16;5005651;28;20131;-60
2022/02/03 10:39:16;;;;;;;6.85;3.28;;;;;;;8.40;73.74;99856.16;5008089;28;20430;-61
2022/02/03 10:42:09;;;;;;;3.03;1.55;;;;;;;8.45;73.91;99858.75;5007866;28;20189;-62
2022/02/03 10:47:50;;;;;;;4.60;2.28;;;;;;;8.57;72.94;99855.34;5019352;28;20130;-62
2022/02/03 10:50:26;;;;;;;4.30;1.55;;;;;;;8.65;72.50;99852.81;5017356;28;20128;-61
2022/02/03 10:53:24;;;;;;;6.30;2.42;;;;;;;8.67;72.94;99853.66;5001982;28;20453;-62
2022/02/03 10:56:15;;;;;;;4.10;2.60;;;;;;;8.68;72.37;99856.25;5007385;28;20469;-62
2022/02/03 10:58:50;;;;;;;3.67;1.52;;;;;;;8.74;72.88;99856.28;5008344;28;20050;-61
2022/02/03 11:01:49;;;;;;;3.65;1.17;;;;;;;8.79;72.93;99860.59;4995578;28;20575;-60
2022/02/03 11:07:14;;;;;;;10.50;2.75;;;;;;;8.79;72.93;99858.00;5011094;28;20053;-60
2022/02/03 11:09:57;;;;;;;6.03;1.88;;;;;;;8.74;71.80;99866.59;5013681;28;20103;-59
2022/02/03 11:12:46;;;;;;;4.22;1.67;;;;;;;8.74;72.41;99865.72;5001182;28;20112;-61
2022/02/03 11:15:13;;;;;;;2.75;1.25;;;;;;;8.72;72.96;99873.47;5002895;28;20058;-60
2022/02/03 11:17:44;;;;;;;4.05;1.73;;;;;;;8.72;72.47;99873.47;5003615;28;20077;-60
2022/02/03 11:20:11;;;;;;;3.05;1.70;;;;;;;8.71;72.68;99865.72;5000833;28;20041;-60
2022/02/03 11:23:02;;;;;;;3.22;1.50;;;;;;;8.68;73.06;99858.84;5000415;28;20124;-62
2022/02/03 11:26:00;;;;;;;21.20;5.70;;;;;;;8.66;72.66;99852.81;5015806;28;20486;-61
2022/02/03 11:28:48;;;;;;;15.60;4.15;;;;;;;8.63;72.55;99842.47;5015256;28;20065;-61
2022/02/03 11:34:38;;;;;;;10.90;3.92;;;;;;;8.57;73.32;99837.28;5014526;28;20050;-61
2022/02/03 11:37:23;;;;;;;11.07;4.60;;;;;;;8.61;72.53;99833.84;5004084;28;20709;-60
2022/02/03 11:40:25;;;;;;;14.57;5.55;;;;;;;8.58;72.66;99828.72;5012309;28;20045;-59
2022/02/03 11:46:05;;;;;;;12.18;4.72;;;;;;;8.66;72.52;99821.84;5012991;28;20119;-61
2022/02/03 11:49:10;;;;;;;7.13;2.45;;;;;;;8.65;72.51;99822.66;5018442;28;20140;-62
2022/02/03 11:54:56;;;;;;;21.42;6.40;;;;;;;8.71;72.96;99822.69;5015642;28;20096;-61
2022/02/03 12:00:44;;;;;;;8.73;3.40;;;;;;;8.73;72.01;99821.00;5000630;28;20045;-61
2022/02/03 12:03:11;;;;;;;11.05;3.97;;;;;;;8.76;72.72;99832.16;5003740;28;20058;-60
2022/02/03 12:11:47;;;;;;;13.00;3.85;;;;;;;8.81;72.58;99825.31;4983067;28;20073;-60
2022/02/03 12:14:31;;;;;;;5.72;2.45;;;;;;;8.85;72.06;99827.03;4995642;28;20050;-58
2022/02/03 12:17:16;;;;;;;5.57;2.17;;;;;;;8.87;72.39;99817.53;4993397;28;20057;-61
2022/02/03 12:19:57;;;;;;;14.00;5.03;;;;;;;8.90;71.63;99808.94;4981356;28;20076;-60
2022/02/03 12:22:39;;;;;;;22.00;6.05;;;;;;;8.94;72.40;99800.31;4981046;28;20104;-60
2022/02/03 12:25:28;;;;;;;18.52;4.70;;;;;;;8.95;72.10;99802.06;4982095;28;20054;-61
2022/02/03 12:28:15;;;;;;;12.07;4.70;;;;;;;8.95;71.67;99799.47;4983519;28;22401;-61
2022/02/03 12:31:05;;;;;;;15.57;4.45;;;;;;;9.02;72.18;99797.75;4981292;28;20054;-61
2022/02/03 12:39:18;;;;;;;5.57;1.77;;;;;;;9.20;72.00;99808.06;5005005;28;20617;-57
2022/02/03 12:42:01;;;;;;;7.15;2.15;;;;;;;9.25;71.31;99801.16;4978513;28;20089;-58
2022/02/03 12:44:29;;;;;;;6.45;2.45;;;;;;;9.30;71.58;99793.41;4983068;28;20050;-61
2022/02/03 12:47:02;;;;;;;2.40;1.13;;;;;;;9.34;71.64;99783.91;4984455;28;20050;-61
2022/02/03 12:49:30;;;;;;;7.60;2.67;;;;;;;9.42;70.67;99781.34;4987127;28;20116;-60
2022/02/03 12:51:58;;;;;;;7.30;2.42;;;;;;;9.55;71.29;99782.16;4991678;28;20053;-60
2022/02/03 12:54:24;;;;;;;2.55;1.25;;;;;;;9.66;71.32;99780.38;5001088;28;20046;-60
2022/02/03 12:57:00;;;;;;;1.98;0.98;;;;;;;9.71;70.47;99778.66;5002125;28;20100;-60
2022/02/03 12:59:28;;;;;;;2.80;1.05;;;;;;;9.77;70.31;99772.59;5003366;28;20041;-62
2022/02/03 13:01:55;;;;;;;4.82;1.80;;;;;;;9.85;70.09;99775.16;5004397;28;20112;-60
2022/02/03 13:04:23;;;;;;;5.28;1.92;;;;;;;9.92;70.43;99771.66;5004888;28;20466;-60
2022/02/03 13:07:00;;;;;;;3.50;1.45;;;;;;;10.01;70.40;99776.81;4998512;28;20545;-60
2022/02/03 13:09:36;;;;;;;2.90;1.25;;;;;;;10.08;69.66;99772.47;5002332;28;20501;-61
2022/02/03 13:12:29;;;;;;;3.08;1.33;;;;;;;10.09;69.03;99774.19;5000018;28;20043;-60
2022/02/03 13:14:59;;;;;;;6.80;1.80;;;;;;;10.17;69.69;99766.38;5003639;28;20050;-59
2022/02/03 13:17:32;;;;;;;4.72;1.77;;;;;;;10.23;69.85;99758.56;4998697;28;20143;-61
2022/02/03 13:20:08;;;;;;;5.53;2.50;;;;;;;10.29;69.50;99761.13;5001337;28;20053;-61
2022/02/03 13:22:48;;;;;;;6.35;2.35;;;;;;;10.32;68.64;99761.97;5001526;28;20047;-61
2022/02/03 13:25:33;;;;;;;4.97;1.98;;;;;;;10.31;69.21;99768.03;4999352;28;20046;-62
2022/02/03 13:28:06;;;;;;;1.17;0.70;;;;;;;10.27;68.51;99752.50;5003506;28;20046;-59
2022/02/03 13:30:44;;;;;;;8.10;5.03;;;;;;;10.26;68.42;99752.50;4998250;28;20462;-61
2022/02/03 13:33:12;;;;;;;1.52;0.90;;;;;;;10.22;68.84;99751.69;5002028;28;20110;-61
2022/02/03 13:38:54;;;;;;;8.30;2.15;;;;;;;10.09;68.87;99742.25;5015935;28;20115;-61
2022/02/03 13:41:24;;;;;;;2.13;1.15;;;;;;;10.07;68.62;99733.66;4998374;28;20096;-61
2022/02/03 13:43:51;;;;;;;3.17;1.80;;;;;;;10.09;68.81;99729.31;5005494;28;20383;-63
2022/02/03 13:46:29;;;;;;;5.38;1.80;;;;;;;10.07;67.71;99738.84;5004589;28;20230;-61
2022/02/03 13:48:57;;;;;;;2.15;1.00;;;;;;;10.10;68.70;99728.47;5004034;28;20105;-61
2022/02/03 13:51:26;;;;;;;2.33;1.08;;;;;;;10.10;68.43;99721.53;5000181;28;20057;-62
2022/02/03 13:54:06;;;;;;;2.45;1.00;;;;;;;10.08;68.14;99717.25;5004749;28;20140;-61
2022/02/03 14:12:01;;;;;;;2.53;1.33;;;;;;;9.96;68.47;99700.09;5017874;28;20100;-61
2022/02/03 14:14:21;;;;;;;4.05;1.35;;;;;;;10.06;68.68;99706.91;5014659;28;20046;-61
2022/02/03 14:22:05;;;;;;;2.95;1.00;;;;;;;10.33;68.36;99697.25;5010111;28;20046;-60
2022/02/03 14:27:23;;;;;;;1.50;0.90;;;;;;;10.31;67.88;99691.22;5018940;28;20077;-61
2022/02/03 14:29:53;;;;;;;2.35;1.33;;;;;;;10.27;67.25;99689.53;5011862;28;20082;-60
2022/02/03 14:32:31;;;;;;;3.30;1.58;;;;;;;10.23;67.97;99687.84;5005005;28;20749;-62
2022/02/03 14:34:58;;;;;;;1.55;0.80;;;;;;;10.16;67.98;99680.13;5012464;28;20046;-58
2022/02/03 14:37:41;;;;;;;2.40;1.00;;;;;;;10.14;67.69;99688.75;5008002;28;20080;-61
2022/02/03 14:40:25;;;;;;;2.75;1.05;;;;;;;10.10;67.87;99687.06;5006109;28;20045;-61
2022/02/03 14:42:51;;;;;;;4.03;0.85;;;;;;;10.07;67.46;99681.91;5009543;28;20564;-61
2022/02/03 14:45:18;;;;;;;8.85;2.85;;;;;;;10.01;67.37;99694.03;5002027;28;20057;-60
2022/02/03 14:47:45;;;;;;;10.52;3.67;;;;;;;10.00;67.42;99684.53;5001424;28;20068;-61
2022/02/03 14:50:13;;;;;;;9.43;3.22;;;;;;;9.99;67.42;99689.69;5005252;28;20123;-61
2022/02/03 14:52:58;;;;;;;12.10;4.63;;;;;;;9.99;67.33;99690.56;5006960;28;20045;-61
2022/02/03 14:58:23;;;;;;;6.60;2.15;;;;;;;9.97;67.57;99692.28;5017143;28;20775;-60
2022/02/03 15:00:51;;;;;;;11.60;4.38;;;;;;;9.96;67.76;99689.75;5002346;28;20093;-61
2022/02/03 15:03:19;;;;;;;4.07;2.15;;;;;;;9.99;67.53;99695.75;5008969;28;20057;-60
2022/02/03 15:05:55;;;;;;;1.85;0.80;;;;;;;10.07;67.73;99697.44;5004664;28;20069;-60
2022/02/03 15:08:45;;;;;;;2.38;1.70;;;;;;;10.09;67.63;99690.50;5008847;28;20053;-61
2022/02/03 15:11:17;;;;;;;2.05;0.70;;;;;;;10.08;67.28;99678.44;5015523;28;20046;-60
2022/02/03 15:13:46;;;;;;;1.88;1.40;;;;;;;10.06;67.22;99683.63;5008378;28;20464;-61
2022/02/03 15:16:14;;;;;;;1.40;0.55;;;;;;;10.07;66.99;99676.72;5008567;28;20049;-61
2022/02/03 15:19:01;;;;;;;5.85;2.60;;;;;;;10.03;67.24;99666.38;5006187;28;20077;-61
2022/02/03 15:21:27;;;;;;;3.78;1.90;;;;;;;10.01;67.05;99662.09;5006602;28;20142;-62
2022/02/03 15:23:54;;;;;;;5.47;1.60;;;;;;;9.95;67.22;99662.13;5007348;28;20050;-62
2022/02/03 15:26:21;;;;;;;1.20;0.60;;;;;;;9.89;66.65;99663.03;5010095;28;20107;-62
2022/02/03 15:28:48;;;;;;;1.20;0.70;;;;;;;9.78;67.03;99650.16;5005036;28;20050;-62
2022/02/03 15:31:15;;;;;;;2.78;0.55;;;;;;;9.73;67.17;99642.44;5007755;28;20045;-62
2022/02/03 15:33:51;;;;;;;2.25;0.50;;;;;;;9.69;67.09;99639.88;5004701;28;20046;-62
2022/02/03 15:36:17;;;;;;;2.33;0.82;;;;;;;9.68;67.22;99648.50;5005108;28;20049;-61
2022/02/03 15:38:48;;;;;;;1.42;0.52;;;;;;;9.65;67.50;99641.63;5004979;28;20096;-61
2022/02/03 15:41:22;;;;;;;1.27;0.43;;;;;;;9.66;67.32;99645.91;5006737;28;20172;-62
2022/02/03 15:43:50;;;;;;;1.95;0.63;;;;;;;9.68;67.24;99639.03;5006684;28;20049;-60
2022/02/03 15:46:19;;;;;;;1.20;0.60;;;;;;;9.70;67.44;99646.78;5005255;28;20052;-60
2022/02/03 15:48:56;;;;;;;3.72;1.13;;;;;;;9.73;67.04;99636.41;5001310;28;20052;-60
2022/02/03 15:57:16;;;;;;;5.63;0.80;;;;;;;9.80;66.84;99632.06;5017546;28;20080;-61
2022/02/03 16:02:48;;;;;;;1.10;0.50;;;;;;;9.75;66.92;99632.94;5016019;28;20584;-59
2022/02/03 16:14:00;;;;;;;2.05;0.77;;;;;;;9.68;67.22;99643.31;5003590;28;20058;-61
2022/02/03 16:19:07;;;;;;;2.88;0.57;;;;;;;9.67;66.96;99637.31;5017791;28;20099;-61
2022/02/03 16:21:40;;;;;;;3.72;0.63;;;;;;;9.66;67.41;99651.09;5007919;28;20054;-60
2022/02/03 16:24:18;;;;;;;1.50;0.85;;;;;;;9.60;67.90;99640.78;5011340;28;20049;-60
2022/02/03 16:41:05;;;;;;;2.90;1.10;;;;;;;9.45;67.84;99634.81;5011092;28;20138;-60
2022/02/03 16:50:19;;;;;;;1.40;0.90;;;;;;;9.44;68.09;99640.88;5000591;28;20135;-61
2022/02/03 16:52:09;;;;;;;2.38;0.60;;;;;;;9.38;67.48;99640.88;5014365;28;20092;-60
2022/02/03 16:54:35;;;;;;;1.73;0.70;;;;;;;9.38;67.68;99641.75;5000657;28;20050;-61
2022/02/03 16:57:10;;;;;;;1.38;0.77;;;;;;;9.35;68.05;99638.31;4998829;28;20054;-62
2022/02/03 16:59:45;;;;;;;1.83;0.73;;;;;;;9.31;68.40;99644.34;5004271;28;20041;-60
2022/02/03 17:02:11;;;;;;;1.98;0.82;;;;;;;9.30;68.13;99648.69;5001021;28;21403;-59
2022/02/03 17:04:38;;;;;;;2.88;0.60;;;;;;;9.28;68.04;99644.38;5005043;28;20049;-59
2022/02/03 17:07:05;;;;;;;2.15;0.80;;;;;;;9.25;68.18;99643.53;5003686;28;20046;-60
2022/02/03 17:09:32;;;;;;;3.35;0.80;;;;;;;9.28;68.31;99641.81;5001635;28;20042;-61
2022/02/03 17:11:59;;;;;;;3.13;0.73;;;;;;;9.22;67.89;99646.13;5001875;28;20088;-60
2022/02/03 17:14:28;;;;;;;2.40;0.98;;;;;;;9.22;68.27;99646.13;5003272;28;20050;-60
2022/02/03 17:16:55;;;;;;;4.45;1.00;;;;;;;9.20;68.38;99631.50;5002834;28;20057;-61
2022/02/03 17:19:22;;;;;;;1.52;0.70;;;;;;;9.17;67.85;99632.38;5008502;28;20100;-59
2022/02/03 17:21:49;;;;;;;2.40;0.85;;;;;;;9.15;67.71;99622.91;5010458;28;20076;-59
2022/02/03 17:24:15;;;;;;;1.83;0.90;;;;;;;9.10;67.86;99620.31;5004464;28;20516;-59
2022/02/03 17:26:59;;;;;;;1.90;1.15;;;;;;;9.00;68.41;99620.38;5006902;28;20045;-60
2022/02/03 17:29:49;;;;;;;3.92;1.27;;;;;;;8.95;68.35;99622.09;5002335;28;20112;-61
2022/02/03 17:32:24;;;;;;;4.15;1.15;;;;;;;8.93;68.45;99608.34;5019300;28;20057;-59
2022/02/03 18:09:04;;;;;;;3.67;1.50;;;;;;;8.58;69.74;99604.13;5018318;28;20117;-60
2022/02/03 18:11:20;;;;;;;4.45;1.38;;;;;;;8.54;70.29;99598.09;5018725;28;20148;-61
2022/02/03 18:28:46;;;;;;;3.03;1.58;;;;;;;8.57;71.22;99597.22;5015932;28;20514;-60
2022/02/03 18:30:33;;;;;;;4.30;1.73;;;;;;;8.54;70.46;99599.81;5016018;28;20077;-57
2022/02/03 18:35:58;;;;;;;3.17;1.02;;;;;;;8.55;70.75;99580.88;5020185;28;20103;-60
2022/02/03 18:49:13;;;;;;;3.75;1.45;;;;;;;8.56;70.17;99577.44;5017563;28;20052;-60